createdAt,value
2023-04-11T00:01:51.303Z,7.20
2023-04-11T00:04:20.874Z,7.20
2023-04-11T00:06:48.545Z,7.20
2023-04-11T00:09:16.676Z,7.20
2023-04-11T00:11:43.701Z,7.20
2023-04-11T00:14:10.760Z,7.30
2023-04-11T00:16:37.725Z,7.30
2023-04-11T00:19:04.779Z,7.30
2023-04-11T00:21:31.600Z,7.40
2023-04-11T00:23:58.510Z,7.40
2023-04-11T00:26:26.032Z,7.30
2023-04-11T00:28:53.343Z,7.30
2023-04-11T00:31:20.310Z,7.30
2023-04-11T00:33:47.126Z,7.30
2023-04-11T00:36:13.999Z,7.30
2023-04-11T00:38:42.261Z,7.30
2023-04-11T00:41:09.113Z,7.20
2023-04-11T00:43:38.932Z,7.20
2023-04-11T00:46:06.374Z,7.20
2023-04-11T00:48:33.342Z,7.20
2023-04-11T00:51:00.630Z,7.20
2023-04-11T00:53:32.697Z,7.10
2023-04-11T00:56:03.741Z,7.10
2023-04-11T00:58:31.696Z,7.20
2023-04-11T01:00:58.544Z,7.20
2023-04-11T01:03:25.813Z,7.20
2023-04-11T01:05:53.956Z,7.20
2023-04-11T01:08:22.516Z,7.20
2023-04-11T01:10:49.840Z,7.30
2023-04-11T01:13:17.234Z,7.30
2023-04-11T01:15:44.204Z,7.20
2023-04-11T01:18:11.718Z,7.20
2023-04-11T01:20:38.763Z,7.20
2023-04-11T01:23:08.553Z,7.20
2023-04-11T01:25:35.401Z,7.20
2023-04-11T01:28:03.332Z,7.20
2023-04-11T01:30:30.387Z,7.20
2023-04-11T01:32:57.259Z,7.20
2023-04-11T01:35:24.142Z,7.20
2023-04-11T01:37:51.446Z,7.10
2023-04-11T01:40:19.349Z,7.10
2023-04-11T01:42:47.681Z,7.10
2023-04-11T01:45:15.399Z,7.20
2023-04-11T01:47:42.354Z,7.10
2023-04-11T01:50:09.650Z,7.10
2023-04-11T01:52:36.555Z,7.10
2023-04-11T01:55:03.759Z,7.10
2023-04-11T01:57:31.044Z,7.20
2023-04-11T01:59:57.927Z,7.30
2023-04-11T02:02:26.174Z,7.20
2023-04-11T02:04:53.080Z,7.20
2023-04-11T02:07:20.992Z,7.30
2023-04-11T02:09:47.920Z,7.30
2023-04-11T02:12:15.003Z,7.30
2023-04-11T02:14:45.874Z,7.30
2023-04-11T02:17:12.922Z,7.40
2023-04-11T02:19:41.412Z,7.40
2023-04-11T02:22:11.379Z,7.30
2023-04-11T02:24:38.736Z,7.30
2023-04-11T02:27:05.676Z,7.30
2023-04-11T02:29:32.741Z,7.40
2023-04-11T02:31:59.954Z,7.30
2023-04-11T02:34:26.826Z,7.40
2023-04-11T02:36:54.049Z,7.40
2023-04-11T02:39:24.228Z,7.30
2023-04-11T02:41:51.423Z,7.30
2023-04-11T02:44:19.376Z,7.20
2023-04-11T02:46:46.295Z,7.40
2023-04-11T02:49:13.392Z,7.30
2023-04-11T02:51:40.313Z,7.30
2023-04-11T02:54:10.407Z,7.40
2023-04-11T02:56:38.992Z,7.40
2023-04-11T02:59:06.998Z,7.50
2023-04-11T03:01:34.580Z,7.40
2023-04-11T03:04:01.663Z,7.50
2023-04-11T03:06:29.280Z,7.30
2023-04-11T03:08:56.999Z,7.40
2023-04-11T03:11:23.939Z,7.30
2023-04-11T03:13:50.859Z,7.40
2023-04-11T03:16:17.806Z,7.30
2023-04-11T03:18:44.639Z,7.30
2023-04-11T03:21:12.378Z,7.30
2023-04-11T03:23:39.288Z,7.30
2023-04-11T03:26:07.371Z,7.30
2023-04-11T03:28:34.369Z,7.20
2023-04-11T03:31:01.280Z,7.20
2023-04-11T03:33:28.129Z,7.30
2023-04-11T03:35:55.103Z,7.30
2023-04-11T03:38:22.222Z,7.20
2023-04-11T03:40:49.051Z,7.30
2023-04-11T03:43:17.218Z,7.30
2023-04-11T03:45:44.128Z,7.40
2023-04-11T03:48:10.996Z,7.40
2023-04-11T03:50:38.148Z,7.40
2023-04-11T03:53:05.176Z,7.40
2023-04-11T03:55:32.324Z,7.50
2023-04-11T03:57:59.154Z,7.50
2023-04-11T04:00:26.915Z,7.50
2023-04-11T04:02:53.995Z,7.50
2023-04-11T04:05:20.981Z,7.60
2023-04-11T04:07:47.751Z,7.60
2023-04-11T04:10:14.652Z,7.60
2023-04-11T04:12:41.516Z,7.60
2023-04-11T04:15:08.786Z,7.50
2023-04-11T04:17:35.832Z,7.50
2023-04-11T04:20:04.190Z,7.60
2023-04-11T04:22:31.146Z,7.50
2023-04-11T04:24:58.261Z,7.50
2023-04-11T04:27:25.277Z,7.50
2023-04-11T04:29:58.306Z,7.60
2023-04-11T04:32:30.894Z,7.50
2023-04-11T04:34:58.760Z,7.60
2023-04-11T04:37:27.380Z,7.60
2023-04-11T04:40:02.225Z,7.60
2023-04-11T04:42:30.346Z,7.60
2023-04-11T04:44:57.533Z,7.60
2023-04-11T04:47:29.418Z,7.70
2023-04-11T04:49:56.694Z,7.70
2023-04-11T04:52:27.952Z,7.60
2023-04-11T04:54:59.093Z,7.70
2023-04-11T04:57:29.709Z,7.70
2023-04-11T04:59:58.044Z,7.70
2023-04-11T05:02:28.121Z,7.70
2023-04-11T05:04:55.184Z,7.70
2023-04-11T05:07:22.138Z,7.70
2023-04-11T05:09:49.075Z,7.70
2023-04-11T05:12:17.037Z,7.70
2023-04-11T05:14:43.918Z,7.70
2023-04-11T05:17:10.699Z,7.70
2023-04-11T05:19:37.511Z,7.70
2023-04-11T05:22:04.311Z,7.70
2023-04-11T05:24:31.092Z,7.70
2023-04-11T05:26:58.326Z,7.70
2023-04-11T05:29:25.131Z,7.70
2023-04-11T05:31:51.927Z,7.70
2023-04-11T05:34:18.746Z,7.80
2023-04-11T05:36:47.241Z,7.70
2023-04-11T05:39:14.255Z,7.70
2023-04-11T05:41:41.884Z,7.80
2023-04-11T05:44:08.904Z,7.80
2023-04-11T05:46:37.221Z,7.70
2023-04-11T05:49:04.311Z,7.80
2023-04-11T05:51:31.362Z,7.90
2023-04-11T05:53:58.434Z,7.80
2023-04-11T05:56:25.721Z,7.70
2023-04-11T05:58:52.599Z,7.80
2023-04-11T06:01:19.459Z,7.80
2023-04-11T06:03:47.292Z,7.80
2023-04-11T06:06:14.516Z,7.90
2023-04-11T06:08:41.495Z,7.90
2023-04-11T06:11:08.625Z,7.90
2023-04-11T06:13:35.412Z,7.90
2023-04-11T06:16:02.432Z,7.90
2023-04-11T06:18:29.303Z,8.00
2023-04-11T06:20:56.356Z,8.00
2023-04-11T06:23:23.137Z,8.00
2023-04-11T06:25:49.982Z,8.00
2023-04-11T06:28:16.825Z,8.10
2023-04-11T06:30:43.654Z,8.00
2023-04-11T06:33:10.546Z,8.10
2023-04-11T06:35:37.484Z,8.00
2023-04-11T06:38:04.356Z,8.00
2023-04-11T06:40:31.172Z,8.10
2023-04-11T06:43:00.205Z,8.10
2023-04-11T06:45:27.264Z,8.10
2023-04-11T06:47:54.109Z,8.10
2023-04-11T06:50:21.277Z,8.10
2023-04-11T06:52:48.143Z,8.20
2023-04-11T06:55:15.625Z,8.30
2023-04-11T06:57:44.078Z,8.30
2023-04-11T07:00:13.018Z,8.40
2023-04-11T07:02:40.247Z,8.40
2023-04-11T07:05:09.237Z,8.30
2023-04-11T07:07:36.587Z,8.30
2023-04-11T07:10:04.330Z,8.30
2023-04-11T07:12:31.174Z,8.30
2023-04-11T07:14:58.013Z,8.40
2023-04-11T07:17:24.853Z,8.40
2023-04-11T07:19:51.729Z,8.40
2023-04-11T07:22:19.165Z,8.50
2023-04-11T07:24:46.905Z,8.50
2023-04-11T07:27:14.456Z,8.50
2023-04-11T07:29:41.447Z,8.60
2023-04-11T07:32:08.354Z,8.60
2023-04-11T07:34:35.571Z,8.60
2023-04-11T07:37:02.457Z,8.70
2023-04-11T07:39:29.299Z,8.60
2023-04-11T07:41:56.937Z,8.70
2023-04-11T07:44:24.168Z,8.80
2023-04-11T07:46:51.246Z,8.80
2023-04-11T07:49:18.113Z,8.90
2023-04-11T07:51:44.889Z,9.00
2023-04-11T07:54:12.344Z,8.90
2023-04-11T07:56:39.206Z,8.90
2023-04-11T07:59:06.244Z,8.90
2023-04-11T08:01:34.974Z,8.90
2023-04-11T08:04:02.118Z,8.80
2023-04-11T08:06:29.364Z,8.80
2023-04-11T08:08:56.346Z,8.80
2023-04-11T08:11:23.210Z,8.80
2023-04-11T08:13:50.795Z,9.10
2023-04-11T08:16:17.838Z,9.10
2023-04-11T08:18:45.830Z,9.10
2023-04-11T08:21:13.497Z,9.20
2023-04-11T08:24:05.659Z,9.20
2023-04-11T08:26:32.559Z,9.20
2023-04-11T08:29:01.436Z,9.20
2023-04-11T08:31:28.636Z,9.30
2023-04-11T08:33:58.357Z,9.30
2023-04-11T08:36:27.347Z,9.30
2023-04-11T08:38:57.372Z,9.30
2023-04-11T08:41:24.263Z,9.50
2023-04-11T08:43:51.349Z,9.50
2023-04-11T08:46:18.433Z,9.70
2023-04-11T08:48:45.343Z,9.80
2023-04-11T08:51:14.596Z,10.00
2023-04-11T08:53:42.012Z,10.10
2023-04-11T08:56:17.542Z,10.20
2023-04-11T08:58:44.426Z,10.20
2023-04-11T09:01:28.993Z,10.20
2023-04-11T09:03:56.278Z,10.00
2023-04-11T09:06:23.358Z,9.70
2023-04-11T09:08:51.452Z,9.50
2023-04-11T09:11:18.977Z,9.40
2023-04-11T09:13:45.804Z,9.40
2023-04-11T09:16:13.761Z,9.50
2023-04-11T09:18:44.375Z,9.50
2023-04-11T09:21:16.015Z,9.40
2023-04-11T09:23:43.525Z,9.40
2023-04-11T09:26:12.512Z,9.30
2023-04-11T09:28:42.850Z,9.30
2023-04-11T09:31:12.937Z,9.50
2023-04-11T09:33:51.707Z,9.60
2023-04-11T09:36:23.782Z,9.50
2023-04-11T09:38:51.720Z,9.40
2023-04-11T09:41:33.555Z,9.30
2023-04-11T09:44:01.498Z,9.20
2023-04-11T09:46:28.822Z,9.20
2023-04-11T09:48:57.014Z,9.40
2023-04-11T09:53:55.896Z,9.70
2023-04-11T09:56:24.125Z,10.00
2023-04-11T09:58:51.975Z,10.10
2023-04-11T10:01:20.089Z,10.40
2023-04-11T10:03:50.994Z,10.70
2023-04-11T10:06:34.307Z,10.90
2023-04-11T10:09:08.454Z,11.20
2023-04-11T10:11:36.061Z,11.30
2023-04-11T10:14:02.967Z,11.50
2023-04-11T10:16:32.527Z,11.60
2023-04-11T10:19:00.448Z,11.60
2023-04-11T10:21:30.528Z,11.80
2023-04-11T10:24:16.344Z,11.80
2023-04-11T10:27:03.289Z,11.20
2023-04-11T10:29:43.321Z,10.20
2023-04-11T10:32:12.855Z,9.90
2023-04-11T10:35:00.580Z,9.60
2023-04-11T10:37:30.586Z,9.50
2023-04-11T10:40:10.201Z,9.30
2023-04-11T10:42:42.354Z,9.30
2023-04-11T10:45:29.304Z,9.50
2023-04-11T10:48:03.456Z,9.60
2023-04-11T10:50:30.342Z,9.90
2023-04-11T10:53:01.620Z,10.40
2023-04-11T10:55:29.641Z,10.90
2023-04-11T10:58:09.858Z,11.40
2023-04-11T11:00:51.930Z,11.80
2023-04-11T11:03:21.680Z,12.40
2023-04-11T11:05:58.196Z,12.80
2023-04-11T11:08:30.680Z,13.30
2023-04-11T11:11:04.717Z,13.40
2023-04-11T11:13:52.115Z,13.30
2023-04-11T11:16:21.294Z,13.50
2023-04-11T11:18:53.475Z,13.90
2023-04-11T11:21:28.323Z,14.20
2023-04-11T11:24:03.581Z,14.50
2023-04-11T11:26:38.108Z,14.70
2023-04-11T11:29:06.149Z,15.00
2023-04-11T11:31:41.916Z,15.20
2023-04-11T11:34:22.720Z,15.40
2023-04-11T11:36:52.816Z,15.50
2023-04-11T11:39:22.028Z,15.50
2023-04-11T11:41:51.167Z,15.70
2023-04-11T11:44:26.392Z,16.10
2023-04-11T11:47:23.706Z,15.70
2023-04-11T11:49:55.452Z,15.00
2023-04-11T11:52:43.569Z,15.20
2023-04-11T11:55:19.524Z,15.70
2023-04-11T11:57:47.609Z,16.40
2023-04-11T12:00:16.542Z,16.70
2023-04-11T12:02:44.683Z,16.70
2023-04-11T12:05:12.403Z,17.00
2023-04-11T12:07:39.961Z,17.00
2023-04-11T12:10:09.395Z,16.10
2023-04-11T12:12:43.532Z,15.40
2023-04-11T12:15:22.127Z,15.70
2023-04-11T12:17:53.871Z,16.00
2023-04-11T12:20:27.452Z,15.70
2023-04-11T12:22:55.445Z,15.90
2023-04-11T12:25:23.363Z,16.20
2023-04-11T12:27:50.354Z,16.70
2023-04-11T12:30:17.357Z,16.70
2023-04-11T12:32:45.299Z,16.90
2023-04-11T12:35:13.109Z,16.70
2023-04-11T12:37:40.583Z,17.20
2023-04-11T12:40:11.113Z,17.30
2023-04-11T12:42:53.268Z,17.50
2023-04-11T12:45:22.818Z,17.10
2023-04-11T12:47:49.918Z,17.50
2023-04-11T12:50:16.867Z,17.70
2023-04-11T12:52:44.637Z,17.50
2023-04-11T12:55:12.675Z,17.10
2023-04-11T12:57:39.771Z,17.00
2023-04-11T13:00:08.201Z,17.10
2023-04-11T13:02:42.128Z,16.90
2023-04-11T13:05:14.675Z,17.20
2023-04-11T13:07:42.698Z,16.90
2023-04-11T13:10:13.933Z,17.00
2023-04-11T13:12:44.271Z,17.40
2023-04-11T13:15:13.506Z,16.60
2023-04-11T13:17:40.602Z,15.70
2023-04-11T13:20:10.561Z,15.20
2023-04-11T13:22:38.787Z,14.60
2023-04-11T13:25:07.181Z,14.50
2023-04-11T13:27:34.614Z,14.40
2023-04-11T13:30:02.058Z,15.00
2023-04-11T13:32:30.281Z,15.90
2023-04-11T13:34:57.102Z,16.50
2023-04-11T13:37:24.008Z,16.50
2023-04-11T13:39:51.133Z,16.00
2023-04-11T13:42:18.037Z,15.40
2023-04-11T13:44:44.845Z,15.10
2023-04-11T13:47:11.657Z,15.30
2023-04-11T13:49:38.492Z,15.40
2023-04-11T13:52:05.762Z,15.40
2023-04-11T13:54:32.646Z,15.20
2023-04-11T13:56:59.771Z,14.80
2023-04-11T13:59:27.649Z,15.00
2023-04-11T14:01:54.748Z,15.50
2023-04-11T14:04:22.045Z,15.40
2023-04-11T14:06:48.983Z,15.70
2023-04-11T14:09:16.305Z,16.50
2023-04-11T14:11:43.835Z,16.20
2023-04-11T14:14:10.696Z,15.60
2023-04-11T14:16:37.941Z,14.80
2023-04-11T14:19:04.813Z,14.20
2023-04-11T14:21:31.859Z,14.10
2023-04-11T14:23:59.159Z,14.10
2023-04-11T14:26:26.702Z,14.20
2023-04-11T14:28:53.777Z,14.30
2023-04-11T14:31:20.759Z,14.00
2023-04-11T14:33:47.944Z,14.40
2023-04-11T14:36:14.837Z,14.90
2023-04-11T14:38:41.745Z,15.40
2023-04-11T14:41:08.766Z,15.70
2023-04-11T14:43:35.846Z,16.60
2023-04-11T14:46:02.662Z,16.90
2023-04-11T14:48:29.682Z,16.80
2023-04-11T14:50:56.884Z,16.60
2023-04-11T14:53:24.932Z,16.00
2023-04-11T14:55:51.916Z,16.20
2023-04-11T14:58:18.782Z,16.40
2023-04-11T15:00:45.688Z,16.20
2023-04-11T15:03:13.254Z,16.40
2023-04-11T15:05:40.499Z,16.50
2023-04-11T15:08:08.174Z,16.40
2023-04-11T15:10:35.087Z,15.90
2023-04-11T15:13:02.076Z,15.20
2023-04-11T15:15:28.924Z,15.60
2023-04-11T15:18:19.097Z,15.90
2023-04-11T15:20:46.166Z,16.50
2023-04-11T15:23:13.157Z,16.90
2023-04-11T15:25:40.010Z,17.20
2023-04-11T15:28:07.208Z,17.60
2023-04-11T15:30:34.743Z,18.00
2023-04-11T15:33:01.610Z,18.10
2023-04-11T15:35:28.727Z,18.40
2023-04-11T15:37:55.683Z,18.70
2023-04-11T15:40:22.523Z,18.30
2023-04-11T15:42:49.781Z,18.20
2023-04-11T15:45:16.811Z,18.30
2023-04-11T15:47:43.664Z,18.20
2023-04-11T15:50:11.023Z,18.50
2023-04-11T15:52:37.921Z,18.20
2023-04-11T15:55:05.286Z,18.50
2023-04-11T15:57:33.105Z,18.80
2023-04-11T15:59:59.957Z,18.90
2023-04-11T16:02:27.303Z,18.60
2023-04-11T16:04:55.486Z,18.60
2023-04-11T16:07:23.292Z,18.60
2023-04-11T16:09:50.587Z,17.70
2023-04-11T16:12:18.190Z,17.60
2023-04-11T16:14:47.717Z,16.70
2023-04-11T16:17:18.520Z,16.10
2023-04-11T16:19:45.456Z,15.40
2023-04-11T16:22:12.447Z,14.90
2023-04-11T16:24:39.300Z,14.20
2023-04-11T16:27:08.538Z,14.00
2023-04-11T16:29:35.563Z,13.80
2023-04-11T16:32:04.804Z,13.60
2023-04-11T16:34:36.541Z,13.50
2023-04-11T16:37:04.609Z,13.30
2023-04-11T16:39:31.600Z,13.20
2023-04-11T16:41:58.436Z,13.10
2023-04-11T16:44:27.752Z,13.00
2023-04-11T16:46:54.636Z,12.90
2023-04-11T16:49:21.545Z,12.80
2023-04-11T16:51:50.700Z,12.70
2023-04-11T16:54:17.561Z,12.60
2023-04-11T16:56:44.400Z,12.60
2023-04-11T16:59:14.646Z,12.60
2023-04-11T17:01:42.178Z,12.60
2023-04-11T17:04:09.734Z,12.40
2023-04-11T17:06:37.148Z,12.40
2023-04-11T17:09:06.422Z,12.30
2023-04-11T17:11:35.277Z,12.20
2023-04-11T17:14:03.837Z,12.30
2023-04-11T17:16:30.854Z,12.20
2023-04-11T17:18:57.778Z,12.10
2023-04-11T17:21:24.648Z,12.10
2023-04-11T17:23:51.483Z,12.10
2023-04-11T17:26:18.545Z,12.00
2023-04-11T17:28:47.024Z,12.10
2023-04-11T17:31:16.177Z,11.90
2023-04-11T17:33:43.894Z,11.90
2023-04-11T17:36:14.256Z,11.80
2023-04-11T17:38:43.564Z,11.60
2023-04-11T17:41:15.084Z,11.60
2023-04-11T17:43:43.639Z,11.50
2023-04-11T17:46:10.635Z,11.50
2023-04-11T17:48:37.780Z,11.40
2023-04-11T17:51:07.801Z,11.30
2023-04-11T17:53:34.635Z,11.30
2023-04-11T17:56:05.879Z,11.20
2023-04-11T17:58:33.851Z,11.10
2023-04-11T18:01:00.879Z,11.10
2023-04-11T18:03:35.484Z,11.10
2023-04-11T18:06:03.209Z,11.00
2023-04-11T18:08:42.727Z,11.00
2023-04-11T18:11:14.365Z,10.90
2023-04-11T18:13:43.837Z,10.90
2023-04-11T18:16:11.480Z,10.80
2023-04-11T18:18:38.527Z,10.80
2023-04-11T18:21:07.836Z,10.80
2023-04-11T18:23:37.510Z,10.70
2023-04-11T18:26:04.429Z,10.70
2023-04-11T18:28:31.232Z,10.60
2023-04-11T18:30:58.046Z,10.60
2023-04-11T18:33:25.921Z,10.50
2023-04-11T18:35:52.941Z,10.50
2023-04-11T18:38:19.919Z,10.40
2023-04-11T18:40:48.363Z,10.30
2023-04-11T18:43:15.719Z,10.30
2023-04-11T18:45:45.200Z,10.20
2023-04-11T18:48:12.689Z,10.10
2023-04-11T18:50:43.217Z,10.00
2023-04-11T18:53:13.524Z,9.90
2023-04-11T18:55:41.077Z,9.80
2023-04-11T18:58:09.998Z,9.80
2023-04-11T19:00:39.016Z,9.70
2023-04-11T19:03:14.736Z,9.70
2023-04-11T19:05:43.788Z,9.60
2023-04-11T19:08:11.317Z,9.50
2023-04-11T19:10:38.361Z,9.50
2023-04-11T19:13:07.535Z,9.40
2023-04-11T19:15:34.619Z,9.30
2023-04-11T19:18:02.067Z,9.30
2023-04-11T19:20:31.922Z,9.20
2023-04-11T19:22:58.771Z,9.20
2023-04-11T19:25:26.179Z,9.00
2023-04-11T19:27:53.110Z,9.00
2023-04-11T19:30:19.974Z,8.90
2023-04-11T19:32:47.727Z,8.80
2023-04-11T19:35:16.288Z,8.80
2023-04-11T19:37:43.193Z,8.80
2023-04-11T19:40:16.642Z,8.70
2023-04-11T19:42:44.723Z,8.60
2023-04-11T19:45:12.311Z,8.50
2023-04-11T19:47:40.911Z,8.60
2023-04-11T19:50:11.981Z,8.50
2023-04-11T19:52:40.084Z,8.50
2023-04-11T19:55:07.688Z,8.50
2023-04-11T19:57:34.729Z,8.50
2023-04-11T20:00:02.365Z,8.50
2023-04-11T20:02:30.462Z,8.40
2023-04-11T20:04:58.188Z,8.40
2023-04-11T20:07:25.542Z,8.40
2023-04-11T20:09:52.597Z,8.40
2023-04-11T20:12:19.524Z,8.40
2023-04-11T20:14:46.508Z,8.30
2023-04-11T20:17:15.977Z,8.30
2023-04-11T20:19:44.380Z,8.20
2023-04-11T20:22:14.754Z,8.20
2023-04-11T20:24:41.587Z,8.10
2023-04-11T20:27:08.541Z,8.10
2023-04-11T20:29:38.262Z,8.10
2023-04-11T20:32:06.044Z,8.00
2023-04-11T20:34:33.107Z,8.00
2023-04-11T20:37:00.856Z,8.00
2023-04-11T20:39:28.043Z,8.00
2023-04-11T20:41:56.983Z,8.00
2023-04-11T20:44:26.106Z,8.00
2023-04-11T20:46:53.700Z,8.00
2023-04-11T20:49:20.916Z,8.00
2023-04-11T20:51:47.976Z,8.00
2023-04-11T20:54:14.857Z,8.00
2023-04-11T20:56:43.770Z,8.00
2023-04-11T20:59:13.119Z,8.10
2023-04-11T21:01:40.543Z,8.10
2023-04-11T21:04:09.710Z,8.10
2023-04-11T21:06:36.887Z,8.10
2023-04-11T21:09:04.384Z,8.10
2023-04-11T21:11:31.948Z,8.10
2023-04-11T21:13:58.947Z,8.00
2023-04-11T21:16:26.235Z,8.10
2023-04-11T21:18:53.138Z,8.00
2023-04-11T21:21:20.040Z,8.10
2023-04-11T21:23:46.919Z,8.00
2023-04-11T21:26:13.760Z,8.00
2023-04-11T21:28:40.794Z,8.00
2023-04-11T21:31:07.681Z,8.00
2023-04-11T21:33:34.565Z,8.00
2023-04-11T21:36:01.792Z,8.00
2023-04-11T21:38:29.134Z,8.00
2023-04-11T21:40:56.844Z,8.00
2023-04-11T21:43:24.145Z,8.00
2023-04-11T21:45:51.156Z,8.00
2023-04-11T21:48:18.010Z,8.00
2023-04-11T21:50:45.880Z,8.10
2023-04-11T21:53:14.232Z,8.00
2023-04-11T21:55:46.079Z,8.00
2023-04-11T21:58:25.879Z,8.00
2023-04-11T22:00:55.441Z,8.00
2023-04-11T22:03:23.280Z,8.00
2023-04-11T22:05:52.241Z,8.10
2023-04-11T22:08:19.930Z,8.10
2023-04-11T22:10:48.101Z,8.10
2023-04-11T22:13:18.410Z,8.10
2023-04-11T22:15:46.696Z,8.10
2023-04-11T22:18:13.596Z,8.10
2023-04-11T22:20:44.913Z,8.10
2023-04-11T22:23:17.669Z,8.10
2023-04-11T22:25:44.529Z,8.10
2023-04-11T22:28:18.506Z,8.10
2023-04-11T22:30:48.360Z,8.10
2023-04-11T22:33:15.486Z,8.10
2023-04-11T22:35:47.711Z,8.10
2023-04-11T22:38:15.881Z,8.10
2023-04-11T22:40:43.023Z,8.10
2023-04-11T22:43:10.532Z,8.20
2023-04-11T22:45:37.516Z,8.20
2023-04-11T22:48:05.982Z,8.10
2023-04-11T22:50:34.227Z,8.10
2023-04-11T22:53:03.761Z,8.10
2023-04-11T22:55:35.210Z,8.10
2023-04-11T22:58:05.081Z,8.20
2023-04-11T23:00:38.057Z,8.20
2023-04-11T23:03:05.397Z,8.10
2023-04-11T23:05:32.244Z,8.20
2023-04-11T23:07:59.090Z,8.30
2023-04-11T23:10:26.009Z,8.20
2023-04-11T23:12:53.048Z,8.20
2023-04-11T23:15:21.866Z,8.20
2023-04-11T23:17:49.232Z,8.20
2023-04-11T23:20:17.565Z,8.20
2023-04-11T23:22:44.819Z,8.20
2023-04-11T23:25:12.654Z,8.20
2023-04-11T23:27:39.960Z,8.20
2023-04-11T23:30:07.749Z,8.20
2023-04-11T23:32:34.778Z,8.30
2023-04-11T23:35:02.659Z,8.20
2023-04-11T23:37:29.468Z,8.20
2023-04-11T23:39:57.176Z,8.20
2023-04-11T23:42:24.047Z,8.30
2023-04-11T23:44:50.933Z,8.20
2023-04-11T23:47:17.726Z,8.20
2023-04-11T23:49:44.624Z,8.20
2023-04-11T23:52:12.246Z,8.30
2023-04-11T23:54:39.095Z,8.30
2023-04-11T23:57:06.222Z,8.20
2023-04-11T23:59:33.230Z,8.30
